sensor_id;sensor_type;location;lat;lon;timestamp;P1;durP1;ratioP1;P2;durP2;ratioP2
26375;SDS011;30544;42.196;24.336;2023-10-19T00:02:08;33.60;;;23.85;;
26375;SDS011;30544;42.196;24.336;2023-10-19T00:04:33;33.65;;;24.20;;
26375;SDS011;30544;42.196;24.336;2023-10-19T00:07:02;33.25;;;23.52;;
26375;SDS011;30544;42.196;24.336;2023-10-19T00:09:30;36.92;;;26.42;;
26375;SDS011;30544;42.196;24.336;2023-10-19T00:12:04;34.05;;;23.33;;
26375;SDS011;30544;42.196;24.336;2023-10-19T00:14:34;35.53;;;25.08;;
26375;SDS011;30544;42.196;24.336;2023-10-19T00:17:00;41.83;;;26.75;;
26375;SDS011;30544;42.196;24.336;2023-10-19T00:19:31;39.03;;;26.52;;
26375;SDS011;30544;42.196;24.336;2023-10-19T00:22:05;45.37;;;29.60;;
26375;SDS011;30544;42.196;24.336;2023-10-19T00:24:40;40.80;;;27.58;;
26375;SDS011;30544;42.196;24.336;2023-10-19T00:27:09;42.20;;;28.00;;
26375;SDS011;30544;42.196;24.336;2023-10-19T00:29:41;39.60;;;28.20;;
26375;SDS011;30544;42.196;24.336;2023-10-19T00:32:13;41.55;;;28.73;;
26375;SDS011;30544;42.196;24.336;2023-10-19T00:34:40;39.22;;;29.13;;
26375;SDS011;30544;42.196;24.336;2023-10-19T00:37:09;39.33;;;27.58;;
26375;SDS011;30544;42.196;24.336;2023-10-19T00:39:43;41.50;;;27.85;;
26375;SDS011;30544;42.196;24.336;2023-10-19T00:42:18;43.88;;;29.30;;
26375;SDS011;30544;42.196;24.336;2023-10-19T00:44:55;45.03;;;31.00;;
26375;SDS011;30544;42.196;24.336;2023-10-19T00:47:28;45.55;;;30.67;;
26375;SDS011;30544;42.196;24.336;2023-10-19T00:50:05;47.10;;;30.80;;
26375;SDS011;30544;42.196;24.336;2023-10-19T00:52:38;44.55;;;29.45;;
26375;SDS011;30544;42.196;24.336;2023-10-19T00:55:11;39.05;;;27.42;;
26375;SDS011;30544;42.196;24.336;2023-10-19T00:57:40;43.33;;;28.15;;
26375;SDS011;30544;42.196;24.336;2023-10-19T01:00:13;40.35;;;27.10;;
26375;SDS011;30544;42.196;24.336;2023-10-19T01:02:55;43.20;;;29.73;;
26375;SDS011;30544;42.196;24.336;2023-10-19T01:05:25;39.63;;;28.90;;
26375;SDS011;30544;42.196;24.336;2023-10-19T01:07:59;39.45;;;28.40;;
26375;SDS011;30544;42.196;24.336;2023-10-19T01:10:28;47.85;;;31.02;;
26375;SDS011;30544;42.196;24.336;2023-10-19T01:12:56;48.08;;;31.58;;
26375;SDS011;30544;42.196;24.336;2023-10-19T01:15:24;41.22;;;29.73;;
26375;SDS011;30544;42.196;24.336;2023-10-19T01:17:56;39.17;;;28.08;;
26375;SDS011;30544;42.196;24.336;2023-10-19T01:20:24;43.75;;;30.60;;
26375;SDS011;30544;42.196;24.336;2023-10-19T01:23:14;37.17;;;26.15;;
26375;SDS011;30544;42.196;24.336;2023-10-19T01:25:51;32.92;;;24.33;;
26375;SDS011;30544;42.196;24.336;2023-10-19T01:31:07;30.85;;;20.45;;
26375;SDS011;30544;42.196;24.336;2023-10-19T01:33:39;29.90;;;20.80;;
26375;SDS011;30544;42.196;24.336;2023-10-19T01:36:07;28.92;;;20.02;;
26375;SDS011;30544;42.196;24.336;2023-10-19T01:38:39;25.52;;;18.80;;
26375;SDS011;30544;42.196;24.336;2023-10-19T01:41:06;28.88;;;18.50;;
26375;SDS011;30544;42.196;24.336;2023-10-19T01:43:39;26.65;;;17.85;;
26375;SDS011;30544;42.196;24.336;2023-10-19T01:46:05;22.73;;;17.10;;
26375;SDS011;30544;42.196;24.336;2023-10-19T01:48:37;25.30;;;17.25;;
26375;SDS011;30544;42.196;24.336;2023-10-19T01:51:05;23.38;;;17.70;;
26375;SDS011;30544;42.196;24.336;2023-10-19T01:53:38;27.50;;;19.50;;
26375;SDS011;30544;42.196;24.336;2023-10-19T01:56:08;35.92;;;20.63;;
26375;SDS011;30544;42.196;24.336;2023-10-19T01:58:36;26.42;;;19.50;;
26375;SDS011;30544;42.196;24.336;2023-10-19T02:01:02;28.95;;;21.27;;
26375;SDS011;30544;42.196;24.336;2023-10-19T02:03:33;32.00;;;21.13;;
26375;SDS011;30544;42.196;24.336;2023-10-19T02:06:00;39.03;;;21.92;;
26375;SDS011;30544;42.196;24.336;2023-10-19T02:08:36;33.50;;;20.77;;
26375;SDS011;30544;42.196;24.336;2023-10-19T02:11:05;27.15;;;18.75;;
26375;SDS011;30544;42.196;24.336;2023-10-19T02:13:39;30.48;;;17.15;;
26375;SDS011;30544;42.196;24.336;2023-10-19T02:16:05;28.52;;;18.42;;
26375;SDS011;30544;42.196;24.336;2023-10-19T02:18:33;26.80;;;16.98;;
26375;SDS011;30544;42.196;24.336;2023-10-19T02:21:00;24.10;;;17.40;;
26375;SDS011;30544;42.196;24.336;2023-10-19T02:23:31;23.30;;;16.33;;
26375;SDS011;30544;42.196;24.336;2023-10-19T02:26:00;27.63;;;16.60;;
26375;SDS011;30544;42.196;24.336;2023-10-19T02:28:29;24.27;;;17.02;;
26375;SDS011;30544;42.196;24.336;2023-10-19T02:30:57;27.08;;;16.50;;
26375;SDS011;30544;42.196;24.336;2023-10-19T02:33:35;23.85;;;16.90;;
26375;SDS011;30544;42.196;24.336;2023-10-19T02:36:03;25.80;;;17.13;;
26375;SDS011;30544;42.196;24.336;2023-10-19T02:38:38;23.85;;;16.20;;
26375;SDS011;30544;42.196;24.336;2023-10-19T02:41:09;20.38;;;15.45;;
26375;SDS011;30544;42.196;24.336;2023-10-19T02:43:37;24.40;;;16.48;;
26375;SDS011;30544;42.196;24.336;2023-10-19T02:46:03;27.30;;;17.02;;
26375;SDS011;30544;42.196;24.336;2023-10-19T02:48:30;29.33;;;17.40;;
26375;SDS011;30544;42.196;24.336;2023-10-19T02:50:56;24.48;;;16.23;;
26375;SDS011;30544;42.196;24.336;2023-10-19T02:53:31;26.35;;;17.48;;
26375;SDS011;30544;42.196;24.336;2023-10-19T02:55:59;26.58;;;17.63;;
26375;SDS011;30544;42.196;24.336;2023-10-19T02:58:27;25.10;;;18.25;;
26375;SDS011;30544;42.196;24.336;2023-10-19T03:00:55;28.10;;;18.30;;
26375;SDS011;30544;42.196;24.336;2023-10-19T03:03:21;23.42;;;16.85;;
26375;SDS011;30544;42.196;24.336;2023-10-19T03:05:48;26.80;;;18.52;;
26375;SDS011;30544;42.196;24.336;2023-10-19T03:08:14;30.63;;;18.25;;
26375;SDS011;30544;42.196;24.336;2023-10-19T03:10:44;25.77;;;18.08;;
26375;SDS011;30544;42.196;24.336;2023-10-19T03:13:10;26.50;;;16.17;;
26375;SDS011;30544;42.196;24.336;2023-10-19T03:15:39;31.45;;;19.75;;
26375;SDS011;30544;42.196;24.336;2023-10-19T03:18:09;31.42;;;20.45;;
26375;SDS011;30544;42.196;24.336;2023-10-19T03:20:37;25.80;;;18.98;;
26375;SDS011;30544;42.196;24.336;2023-10-19T03:23:03;30.35;;;20.98;;
26375;SDS011;30544;42.196;24.336;2023-10-19T03:25:31;31.15;;;19.92;;
26375;SDS011;30544;42.196;24.336;2023-10-19T03:28:40;29.38;;;19.17;;
26375;SDS011;30544;42.196;24.336;2023-10-19T03:31:08;31.33;;;20.58;;
26375;SDS011;30544;42.196;24.336;2023-10-19T03:33:35;28.05;;;18.75;;
26375;SDS011;30544;42.196;24.336;2023-10-19T03:36:05;30.08;;;20.35;;
26375;SDS011;30544;42.196;24.336;2023-10-19T03:38:38;29.15;;;18.88;;
26375;SDS011;30544;42.196;24.336;2023-10-19T03:41:05;28.02;;;19.85;;
26375;SDS011;30544;42.196;24.336;2023-10-19T03:43:34;34.05;;;19.50;;
26375;SDS011;30544;42.196;24.336;2023-10-19T03:46:02;29.77;;;20.50;;
26375;SDS011;30544;42.196;24.336;2023-10-19T03:48:40;44.50;;;28.05;;
26375;SDS011;30544;42.196;24.336;2023-10-19T03:51:07;32.70;;;20.52;;
26375;SDS011;30544;42.196;24.336;2023-10-19T03:53:37;30.58;;;20.05;;
26375;SDS011;30544;42.196;24.336;2023-10-19T03:56:08;32.47;;;21.20;;
26375;SDS011;30544;42.196;24.336;2023-10-19T03:58:36;35.78;;;21.48;;
26375;SDS011;30544;42.196;24.336;2023-10-19T04:01:04;40.08;;;23.20;;
26375;SDS011;30544;42.196;24.336;2023-10-19T04:03:32;97.45;;;41.83;;
26375;SDS011;30544;42.196;24.336;2023-10-19T04:06:03;124.68;;;47.17;;
26375;SDS011;30544;42.196;24.336;2023-10-19T04:08:30;41.40;;;22.27;;
26375;SDS011;30544;42.196;24.336;2023-10-19T04:11:02;53.78;;;24.05;;
26375;SDS011;30544;42.196;24.336;2023-10-19T04:13:37;123.50;;;45.50;;
26375;SDS011;30544;42.196;24.336;2023-10-19T04:16:04;233.45;;;74.80;;
26375;SDS011;30544;42.196;24.336;2023-10-19T04:18:34;120.93;;;44.88;;
26375;SDS011;30544;42.196;24.336;2023-10-19T04:21:04;58.83;;;28.08;;
26375;SDS011;30544;42.196;24.336;2023-10-19T04:23:31;31.63;;;20.25;;
26375;SDS011;30544;42.196;24.336;2023-10-19T04:26:01;64.80;;;31.13;;
26375;SDS011;30544;42.196;24.336;2023-10-19T04:28:36;40.33;;;20.83;;
26375;SDS011;30544;42.196;24.336;2023-10-19T04:31:09;72.78;;;28.83;;
26375;SDS011;30544;42.196;24.336;2023-10-19T04:33:39;129.30;;;44.70;;
26375;SDS011;30544;42.196;24.336;2023-10-19T04:36:09;69.25;;;30.00;;
26375;SDS011;30544;42.196;24.336;2023-10-19T04:38:36;33.28;;;18.98;;
26375;SDS011;30544;42.196;24.336;2023-10-19T04:41:04;61.35;;;28.95;;
26375;SDS011;30544;42.196;24.336;2023-10-19T04:43:33;222.88;;;63.63;;
26375;SDS011;30544;42.196;24.336;2023-10-19T04:46:03;192.05;;;55.63;;
26375;SDS011;30544;42.196;24.336;2023-10-19T04:48:33;105.03;;;35.58;;
26375;SDS011;30544;42.196;24.336;2023-10-19T04:51:01;83.88;;;32.40;;
26375;SDS011;30544;42.196;24.336;2023-10-19T04:53:30;97.45;;;38.03;;
26375;SDS011;30544;42.196;24.336;2023-10-19T04:55:58;107.15;;;37.53;;
26375;SDS011;30544;42.196;24.336;2023-10-19T04:58:25;74.57;;;34.10;;
26375;SDS011;30544;42.196;24.336;2023-10-19T05:00:53;68.25;;;34.35;;
26375;SDS011;30544;42.196;24.336;2023-10-19T05:03:20;39.45;;;20.40;;
26375;SDS011;30544;42.196;24.336;2023-10-19T05:05:47;29.65;;;17.15;;
26375;SDS011;30544;42.196;24.336;2023-10-19T05:08:13;29.98;;;18.90;;
26375;SDS011;30544;42.196;24.336;2023-10-19T05:10:42;29.92;;;18.50;;
26375;SDS011;30544;42.196;24.336;2023-10-19T05:13:08;36.55;;;18.67;;
26375;SDS011;30544;42.196;24.336;2023-10-19T05:15:35;29.20;;;18.70;;
26375;SDS011;30544;42.196;24.336;2023-10-19T05:18:03;25.13;;;16.83;;
26375;SDS011;30544;42.196;24.336;2023-10-19T05:20:31;27.48;;;18.50;;
26375;SDS011;30544;42.196;24.336;2023-10-19T05:22:58;26.85;;;17.05;;
26375;SDS011;30544;42.196;24.336;2023-10-19T05:25:25;25.92;;;17.15;;
26375;SDS011;30544;42.196;24.336;2023-10-19T05:27:53;25.60;;;17.17;;
26375;SDS011;30544;42.196;24.336;2023-10-19T05:30:20;32.22;;;18.77;;
26375;SDS011;30544;42.196;24.336;2023-10-19T05:32:48;34.80;;;19.60;;
26375;SDS011;30544;42.196;24.336;2023-10-19T05:35:15;38.33;;;20.17;;
26375;SDS011;30544;42.196;24.336;2023-10-19T05:37:48;36.92;;;20.98;;
26375;SDS011;30544;42.196;24.336;2023-10-19T05:40:15;36.58;;;21.08;;
26375;SDS011;30544;42.196;24.336;2023-10-19T05:42:43;36.58;;;22.05;;
26375;SDS011;30544;42.196;24.336;2023-10-19T05:45:12;43.58;;;23.67;;
26375;SDS011;30544;42.196;24.336;2023-10-19T05:47:41;36.22;;;22.05;;
26375;SDS011;30544;42.196;24.336;2023-10-19T05:50:09;39.47;;;23.35;;
26375;SDS011;30544;42.196;24.336;2023-10-19T05:52:39;31.83;;;21.23;;
26375;SDS011;30544;42.196;24.336;2023-10-19T05:55:07;28.45;;;19.13;;
26375;SDS011;30544;42.196;24.336;2023-10-19T05:57:35;37.65;;;22.35;;
26375;SDS011;30544;42.196;24.336;2023-10-19T06:00:06;30.45;;;20.85;;
26375;SDS011;30544;42.196;24.336;2023-10-19T06:02:39;30.75;;;20.23;;
26375;SDS011;30544;42.196;24.336;2023-10-19T06:05:08;32.55;;;21.50;;
26375;SDS011;30544;42.196;24.336;2023-10-19T06:07:35;27.38;;;20.75;;
26375;SDS011;30544;42.196;24.336;2023-10-19T06:10:02;27.38;;;19.80;;
26375;SDS011;30544;42.196;24.336;2023-10-19T06:12:30;29.42;;;20.23;;
26375;SDS011;30544;42.196;24.336;2023-10-19T06:14:58;26.33;;;19.30;;
26375;SDS011;30544;42.196;24.336;2023-10-19T06:17:25;28.30;;;18.88;;
26375;SDS011;30544;42.196;24.336;2023-10-19T06:19:54;26.00;;;17.95;;
26375;SDS011;30544;42.196;24.336;2023-10-19T06:22:21;25.50;;;18.73;;
26375;SDS011;30544;42.196;24.336;2023-10-19T06:24:48;24.48;;;16.95;;
26375;SDS011;30544;42.196;24.336;2023-10-19T06:27:15;35.95;;;22.50;;
26375;SDS011;30544;42.196;24.336;2023-10-19T06:29:41;29.40;;;18.05;;
26375;SDS011;30544;42.196;24.336;2023-10-19T06:32:09;27.83;;;17.75;;
26375;SDS011;30544;42.196;24.336;2023-10-19T06:34:38;27.27;;;18.70;;
26375;SDS011;30544;42.196;24.336;2023-10-19T06:37:06;26.80;;;17.38;;
26375;SDS011;30544;42.196;24.336;2023-10-19T06:39:36;26.05;;;18.33;;
26375;SDS011;30544;42.196;24.336;2023-10-19T06:42:06;24.85;;;19.33;;
26375;SDS011;30544;42.196;24.336;2023-10-19T06:44:38;28.15;;;19.33;;
26375;SDS011;30544;42.196;24.336;2023-10-19T06:47:05;25.85;;;19.33;;
26375;SDS011;30544;42.196;24.336;2023-10-19T06:49:32;31.25;;;22.27;;
26375;SDS011;30544;42.196;24.336;2023-10-19T06:51:59;29.73;;;21.60;;
26375;SDS011;30544;42.196;24.336;2023-10-19T06:54:27;34.53;;;21.50;;
26375;SDS011;30544;42.196;24.336;2023-10-19T06:56:54;34.20;;;23.67;;
26375;SDS011;30544;42.196;24.336;2023-10-19T06:59:21;32.13;;;23.65;;
26375;SDS011;30544;42.196;24.336;2023-10-19T07:01:49;33.67;;;24.48;;
26375;SDS011;30544;42.196;24.336;2023-10-19T07:04:16;31.90;;;23.45;;
26375;SDS011;30544;42.196;24.336;2023-10-19T07:06:42;33.90;;;25.38;;
26375;SDS011;30544;42.196;24.336;2023-10-19T07:09:09;26.35;;;19.80;;
26375;SDS011;30544;42.196;24.336;2023-10-19T07:11:37;24.10;;;18.25;;
26375;SDS011;30544;42.196;24.336;2023-10-19T07:14:04;26.25;;;18.50;;
26375;SDS011;30544;42.196;24.336;2023-10-19T07:16:33;24.85;;;17.48;;
26375;SDS011;30544;42.196;24.336;2023-10-19T07:19:00;23.25;;;17.13;;
26375;SDS011;30544;42.196;24.336;2023-10-19T07:21:26;23.15;;;15.68;;
26375;SDS011;30544;42.196;24.336;2023-10-19T07:23:56;18.40;;;14.60;;
26375;SDS011;30544;42.196;24.336;2023-10-19T07:26:26;19.58;;;14.55;;
26375;SDS011;30544;42.196;24.336;2023-10-19T07:28:58;15.25;;;12.35;;
26375;SDS011;30544;42.196;24.336;2023-10-19T07:31:24;18.40;;;11.73;;
26375;SDS011;30544;42.196;24.336;2023-10-19T07:33:52;16.95;;;12.23;;
26375;SDS011;30544;42.196;24.336;2023-10-19T07:36:20;19.85;;;12.52;;
26375;SDS011;30544;42.196;24.336;2023-10-19T07:38:50;18.63;;;13.40;;
26375;SDS011;30544;42.196;24.336;2023-10-19T07:41:17;17.77;;;12.88;;
26375;SDS011;30544;42.196;24.336;2023-10-19T07:43:43;16.40;;;12.75;;
26375;SDS011;30544;42.196;24.336;2023-10-19T07:46:12;16.02;;;11.57;;
26375;SDS011;30544;42.196;24.336;2023-10-19T07:48:38;15.73;;;11.25;;
26375;SDS011;30544;42.196;24.336;2023-10-19T07:51:05;14.73;;;12.25;;
26375;SDS011;30544;42.196;24.336;2023-10-19T07:53:32;14.73;;;11.80;;
26375;SDS011;30544;42.196;24.336;2023-10-19T07:56:01;18.05;;;13.43;;
26375;SDS011;30544;42.196;24.336;2023-10-19T07:58:28;69.15;;;29.77;;
26375;SDS011;30544;42.196;24.336;2023-10-19T08:00:55;105.75;;;41.78;;
26375;SDS011;30544;42.196;24.336;2023-10-19T08:03:23;23.35;;;16.15;;
26375;SDS011;30544;42.196;24.336;2023-10-19T08:05:50;18.90;;;13.95;;
26375;SDS011;30544;42.196;24.336;2023-10-19T08:08:17;15.40;;;12.63;;
26375;SDS011;30544;42.196;24.336;2023-10-19T08:10:44;22.65;;;14.38;;
26375;SDS011;30544;42.196;24.336;2023-10-19T08:13:12;17.38;;;13.88;;
26375;SDS011;30544;42.196;24.336;2023-10-19T08:15:39;20.85;;;14.80;;
26375;SDS011;30544;42.196;24.336;2023-10-19T08:18:06;20.40;;;13.90;;
26375;SDS011;30544;42.196;24.336;2023-10-19T08:20:34;19.13;;;15.50;;
26375;SDS011;30544;42.196;24.336;2023-10-19T08:23:02;18.88;;;13.90;;
26375;SDS011;30544;42.196;24.336;2023-10-19T08:25:30;20.00;;;15.27;;
26375;SDS011;30544;42.196;24.336;2023-10-19T08:27:57;18.40;;;14.88;;
26375;SDS011;30544;42.196;24.336;2023-10-19T08:30:24;20.52;;;16.00;;
26375;SDS011;30544;42.196;24.336;2023-10-19T08:32:51;21.15;;;14.93;;
26375;SDS011;30544;42.196;24.336;2023-10-19T08:35:19;24.77;;;15.18;;
26375;SDS011;30544;42.196;24.336;2023-10-19T08:37:51;25.58;;;15.45;;
26375;SDS011;30544;42.196;24.336;2023-10-19T08:40:18;22.70;;;16.30;;
26375;SDS011;30544;42.196;24.336;2023-10-19T08:42:47;21.77;;;17.42;;
26375;SDS011;30544;42.196;24.336;2023-10-19T08:45:14;27.67;;;17.88;;
26375;SDS011;30544;42.196;24.336;2023-10-19T08:47:43;23.42;;;17.67;;
26375;SDS011;30544;42.196;24.336;2023-10-19T08:50:15;26.52;;;17.85;;
26375;SDS011;30544;42.196;24.336;2023-10-19T08:52:46;29.70;;;18.85;;
26375;SDS011;30544;42.196;24.336;2023-10-19T08:55:14;28.05;;;20.65;;
26375;SDS011;30544;42.196;24.336;2023-10-19T08:57:41;26.65;;;19.75;;
26375;SDS011;30544;42.196;24.336;2023-10-19T09:00:09;32.00;;;21.05;;
26375;SDS011;30544;42.196;24.336;2023-10-19T09:02:37;29.98;;;21.48;;
26375;SDS011;30544;42.196;24.336;2023-10-19T09:05:07;28.55;;;21.63;;
26375;SDS011;30544;42.196;24.336;2023-10-19T09:07:45;27.02;;;21.15;;
26375;SDS011;30544;42.196;24.336;2023-10-19T09:10:16;26.20;;;20.40;;
26375;SDS011;30544;42.196;24.336;2023-10-19T09:12:43;31.73;;;22.02;;
26375;SDS011;30544;42.196;24.336;2023-10-19T09:15:15;28.42;;;21.60;;
26375;SDS011;30544;42.196;24.336;2023-10-19T09:17:49;30.30;;;20.83;;
26375;SDS011;30544;42.196;24.336;2023-10-19T09:20:19;31.17;;;21.85;;
26375;SDS011;30544;42.196;24.336;2023-10-19T09:22:52;29.35;;;21.25;;
26375;SDS011;30544;42.196;24.336;2023-10-19T09:25:21;28.73;;;21.85;;
26375;SDS011;30544;42.196;24.336;2023-10-19T09:27:48;27.55;;;20.33;;
26375;SDS011;30544;42.196;24.336;2023-10-19T09:30:15;31.38;;;21.15;;
26375;SDS011;30544;42.196;24.336;2023-10-19T09:32:46;25.60;;;20.45;;
26375;SDS011;30544;42.196;24.336;2023-10-19T09:35:13;29.17;;;21.02;;
26375;SDS011;30544;42.196;24.336;2023-10-19T09:37:41;46.38;;;26.42;;
26375;SDS011;30544;42.196;24.336;2023-10-19T09:40:09;28.48;;;20.85;;
26375;SDS011;30544;42.196;24.336;2023-10-19T09:42:39;27.48;;;20.45;;
26375;SDS011;30544;42.196;24.336;2023-10-19T09:45:11;23.90;;;18.52;;
26375;SDS011;30544;42.196;24.336;2023-10-19T09:47:38;29.02;;;20.17;;
26375;SDS011;30544;42.196;24.336;2023-10-19T09:50:12;24.42;;;18.20;;
26375;SDS011;30544;42.196;24.336;2023-10-19T09:52:39;26.52;;;19.00;;
26375;SDS011;30544;42.196;24.336;2023-10-19T09:55:07;24.35;;;18.65;;
26375;SDS011;30544;42.196;24.336;2023-10-19T09:57:42;25.83;;;18.65;;
26375;SDS011;30544;42.196;24.336;2023-10-19T10:00:15;24.75;;;18.73;;
26375;SDS011;30544;42.196;24.336;2023-10-19T10:02:48;28.87;;;19.80;;
26375;SDS011;30544;42.196;24.336;2023-10-19T10:08:32;28.85;;;19.63;;
26375;SDS011;30544;42.196;24.336;2023-10-19T10:10:59;27.35;;;17.25;;
26375;SDS011;30544;42.196;24.336;2023-10-19T10:13:41;22.25;;;16.85;;
26375;SDS011;30544;42.196;24.336;2023-10-19T10:16:08;26.15;;;17.77;;
26375;SDS011;30544;42.196;24.336;2023-10-19T10:18:40;28.80;;;20.65;;
26375;SDS011;30544;42.196;24.336;2023-10-19T10:21:10;31.55;;;19.77;;
26375;SDS011;30544;42.196;24.336;2023-10-19T10:23:41;25.75;;;16.35;;
26375;SDS011;30544;42.196;24.336;2023-10-19T10:26:12;23.38;;;15.38;;
26375;SDS011;30544;42.196;24.336;2023-10-19T10:28:39;22.55;;;15.43;;
26375;SDS011;30544;42.196;24.336;2023-10-19T10:31:09;23.27;;;16.42;;
26375;SDS011;30544;42.196;24.336;2023-10-19T10:33:39;32.38;;;19.63;;
26375;SDS011;30544;42.196;24.336;2023-10-19T10:36:06;25.77;;;16.85;;
26375;SDS011;30544;42.196;24.336;2023-10-19T10:38:35;26.02;;;18.52;;
26375;SDS011;30544;42.196;24.336;2023-10-19T10:41:02;23.38;;;16.10;;
26375;SDS011;30544;42.196;24.336;2023-10-19T10:43:30;20.80;;;14.73;;
26375;SDS011;30544;42.196;24.336;2023-10-19T10:46:03;19.00;;;13.88;;
26375;SDS011;30544;42.196;24.336;2023-10-19T10:48:32;22.08;;;13.65;;
26375;SDS011;30544;42.196;24.336;2023-10-19T10:51:01;21.92;;;15.40;;
26375;SDS011;30544;42.196;24.336;2023-10-19T10:53:28;21.77;;;16.42;;
26375;SDS011;30544;42.196;24.336;2023-10-19T10:55:57;29.20;;;18.75;;
26375;SDS011;30544;42.196;24.336;2023-10-19T10:58:26;24.17;;;16.23;;
26375;SDS011;30544;42.196;24.336;2023-10-19T11:00:54;28.60;;;18.30;;
26375;SDS011;30544;42.196;24.336;2023-10-19T11:03:22;23.55;;;16.25;;
26375;SDS011;30544;42.196;24.336;2023-10-19T11:05:50;19.58;;;14.13;;
26375;SDS011;30544;42.196;24.336;2023-10-19T11:08:17;21.65;;;16.27;;
26375;SDS011;30544;42.196;24.336;2023-10-19T11:10:46;24.38;;;17.70;;
26375;SDS011;30544;42.196;24.336;2023-10-19T11:13:13;23.25;;;16.95;;
26375;SDS011;30544;42.196;24.336;2023-10-19T11:15:47;25.80;;;16.75;;
26375;SDS011;30544;42.196;24.336;2023-10-19T11:18:27;24.98;;;18.52;;
26375;SDS011;30544;42.196;24.336;2023-10-19T11:20:56;23.52;;;17.33;;
26375;SDS011;30544;42.196;24.336;2023-10-19T11:26:08;29.17;;;16.60;;
26375;SDS011;30544;42.196;24.336;2023-10-19T11:28:37;20.85;;;16.33;;
26375;SDS011;30544;42.196;24.336;2023-10-19T11:31:11;20.45;;;15.00;;
26375;SDS011;30544;42.196;24.336;2023-10-19T11:33:42;26.13;;;15.80;;
26375;SDS011;30544;42.196;24.336;2023-10-19T11:36:12;19.65;;;14.98;;
26375;SDS011;30544;42.196;24.336;2023-10-19T11:38:41;19.38;;;14.00;;
26375;SDS011;30544;42.196;24.336;2023-10-19T11:41:09;17.30;;;11.98;;
26375;SDS011;30544;42.196;24.336;2023-10-19T11:43:37;17.63;;;13.20;;
26375;SDS011;30544;42.196;24.336;2023-10-19T11:46:04;17.98;;;13.38;;
26375;SDS011;30544;42.196;24.336;2023-10-19T11:48:32;18.90;;;14.02;;
26375;SDS011;30544;42.196;24.336;2023-10-19T11:51:00;24.98;;;14.77;;
26375;SDS011;30544;42.196;24.336;2023-10-19T11:53:30;19.17;;;12.82;;
26375;SDS011;30544;42.196;24.336;2023-10-19T11:55:59;21.35;;;15.30;;
26375;SDS011;30544;42.196;24.336;2023-10-19T11:58:27;24.67;;;14.48;;
26375;SDS011;30544;42.196;24.336;2023-10-19T12:00:53;21.02;;;15.30;;
26375;SDS011;30544;42.196;24.336;2023-10-19T12:03:21;22.95;;;15.93;;
26375;SDS011;30544;42.196;24.336;2023-10-19T12:05:48;22.92;;;15.45;;
26375;SDS011;30544;42.196;24.336;2023-10-19T12:08:14;22.33;;;15.45;;
26375;SDS011;30544;42.196;24.336;2023-10-19T12:10:43;19.48;;;15.05;;
26375;SDS011;30544;42.196;24.336;2023-10-19T12:13:10;21.13;;;14.55;;
26375;SDS011;30544;42.196;24.336;2023-10-19T12:15:37;25.35;;;16.77;;
26375;SDS011;30544;42.196;24.336;2023-10-19T12:18:04;21.95;;;14.88;;
26375;SDS011;30544;42.196;24.336;2023-10-19T12:20:33;26.98;;;15.60;;
26375;SDS011;30544;42.196;24.336;2023-10-19T12:23:00;24.13;;;15.48;;
26375;SDS011;30544;42.196;24.336;2023-10-19T12:25:30;25.33;;;16.17;;
26375;SDS011;30544;42.196;24.336;2023-10-19T12:27:58;25.75;;;17.00;;
26375;SDS011;30544;42.196;24.336;2023-10-19T12:30:25;24.67;;;16.42;;
26375;SDS011;30544;42.196;24.336;2023-10-19T12:32:59;25.05;;;17.55;;
26375;SDS011;30544;42.196;24.336;2023-10-19T12:35:26;24.15;;;17.83;;
26375;SDS011;30544;42.196;24.336;2023-10-19T12:38:07;27.45;;;18.48;;
26375;SDS011;30544;42.196;24.336;2023-10-19T12:40:40;28.08;;;17.42;;
26375;SDS011;30544;42.196;24.336;2023-10-19T12:43:10;22.90;;;16.58;;
26375;SDS011;30544;42.196;24.336;2023-10-19T12:45:37;26.27;;;14.73;;
26375;SDS011;30544;42.196;24.336;2023-10-19T12:48:05;21.15;;;14.68;;
26375;SDS011;30544;42.196;24.336;2023-10-19T12:50:33;22.13;;;14.70;;
26375;SDS011;30544;42.196;24.336;2023-10-19T12:53:01;20.15;;;14.48;;
26375;SDS011;30544;42.196;24.336;2023-10-19T12:55:28;21.08;;;14.90;;
26375;SDS011;30544;42.196;24.336;2023-10-19T12:57:56;20.17;;;14.63;;
26375;SDS011;30544;42.196;24.336;2023-10-19T13:00:26;36.83;;;19.27;;
26375;SDS011;30544;42.196;24.336;2023-10-19T13:02:54;81.20;;;36.58;;
26375;SDS011;30544;42.196;24.336;2023-10-19T13:05:26;27.15;;;17.38;;
26375;SDS011;30544;42.196;24.336;2023-10-19T13:07:54;26.20;;;17.55;;
26375;SDS011;30544;42.196;24.336;2023-10-19T13:10:23;35.88;;;18.98;;
26375;SDS011;30544;42.196;24.336;2023-10-19T13:12:57;26.52;;;18.02;;
26375;SDS011;30544;42.196;24.336;2023-10-19T13:15:26;27.20;;;18.40;;
26375;SDS011;30544;42.196;24.336;2023-10-19T13:17:56;24.75;;;17.38;;
26375;SDS011;30544;42.196;24.336;2023-10-19T13:20:25;26.77;;;17.83;;
26375;SDS011;30544;42.196;24.336;2023-10-19T13:22:52;29.25;;;19.38;;
26375;SDS011;30544;42.196;24.336;2023-10-19T13:25:21;24.90;;;17.83;;
26375;SDS011;30544;42.196;24.336;2023-10-19T13:28:04;24.58;;;17.08;;
26375;SDS011;30544;42.196;24.336;2023-10-19T13:30:39;23.73;;;16.38;;
26375;SDS011;30544;42.196;24.336;2023-10-19T13:33:06;22.95;;;16.48;;
26375;SDS011;30544;42.196;24.336;2023-10-19T13:35:35;20.90;;;14.43;;
26375;SDS011;30544;42.196;24.336;2023-10-19T13:38:02;21.75;;;15.05;;
26375;SDS011;30544;42.196;24.336;2023-10-19T13:40:30;22.73;;;15.75;;
26375;SDS011;30544;42.196;24.336;2023-10-19T13:42:57;24.23;;;16.33;;
26375;SDS011;30544;42.196;24.336;2023-10-19T13:45:23;21.63;;;16.08;;
26375;SDS011;30544;42.196;24.336;2023-10-19T13:47:52;20.60;;;15.68;;
26375;SDS011;30544;42.196;24.336;2023-10-19T13:50:21;21.55;;;15.75;;
26375;SDS011;30544;42.196;24.336;2023-10-19T13:52:49;28.67;;;15.82;;
26375;SDS011;30544;42.196;24.336;2023-10-19T13:55:17;27.05;;;17.77;;
26375;SDS011;30544;42.196;24.336;2023-10-19T13:57:45;27.77;;;18.25;;
26375;SDS011;30544;42.196;24.336;2023-10-19T14:00:13;29.25;;;18.77;;
26375;SDS011;30544;42.196;24.336;2023-10-19T14:02:45;23.67;;;16.80;;
26375;SDS011;30544;42.196;24.336;2023-10-19T14:05:14;23.60;;;18.02;;
26375;SDS011;30544;42.196;24.336;2023-10-19T14:07:41;26.27;;;18.80;;
26375;SDS011;30544;42.196;24.336;2023-10-19T14:10:09;23.35;;;17.73;;
26375;SDS011;30544;42.196;24.336;2023-10-19T14:12:38;24.65;;;17.35;;
26375;SDS011;30544;42.196;24.336;2023-10-19T14:15:08;27.20;;;16.52;;
26375;SDS011;30544;42.196;24.336;2023-10-19T14:17:38;24.40;;;16.77;;
26375;SDS011;30544;42.196;24.336;2023-10-19T14:20:06;24.27;;;15.43;;
26375;SDS011;30544;42.196;24.336;2023-10-19T14:22:38;23.42;;;15.68;;
26375;SDS011;30544;42.196;24.336;2023-10-19T14:25:06;26.38;;;15.82;;
26375;SDS011;30544;42.196;24.336;2023-10-19T14:27:37;23.35;;;15.15;;
26375;SDS011;30544;42.196;24.336;2023-10-19T14:30:06;26.25;;;16.15;;